Time;durP1;ratioP1;P1;durP2;ratioP2;P2;SDS_P1;SDS_P2;PMS_P1;PMS_P2;Temp;Humidity;BMP_temperature;BMP_pressure;BME280_temperature;BME280_humidity;BME280_pressure;Samples;Min_cycle;Max_cycle;Signal;HPM_P1;HPM_P2
2023/03/19 06:02:00;;;;;;;;;13.67;13.00;;;;;-147.14;100.00;58812.66;5283164;22;46972;-59
2023/03/19 06:04:26;;;;;;;;;16.00;14.33;;;;;-147.14;100.00;58812.66;5036553;28;45340;-58
2023/03/19 06:06:51;;;;;;;;;15.00;13.00;;;;;-147.14;100.00;58812.66;5039694;28;45360;-58
2023/03/19 06:09:16;;;;;;;;;11.00;11.00;;;;;-147.14;100.00;58812.66;5040652;28;65377;-58
2023/03/19 06:11:42;;;;;;;;;10.00;10.00;;;;;-147.14;100.00;58812.66;5051258;28;46235;-58
2023/03/19 06:14:07;;;;;;;;;11.33;11.00;;;;;-147.14;100.00;58812.66;5021711;28;72984;-58
2023/03/19 06:16:32;;;;;;;;;11.33;11.33;;;;;-147.14;100.00;58812.66;5051255;28;45922;-58
2023/03/19 06:18:58;;;;;;;;;16.00;14.00;;;;;-147.14;100.00;58812.66;5049063;28;67702;-58
2023/03/19 06:21:28;;;;;;;;;12.67;11.67;;;;;-147.14;100.00;58812.66;5039887;28;68832;-58
2023/03/19 06:23:54;;;;;;;;;16.67;14.00;;;;;-147.14;100.00;58812.66;5050124;28;45378;-61
2023/03/19 06:26:19;;;;;;;;;14.33;12.00;;;;;-147.14;100.00;58812.66;5045798;28;45406;-60
2023/03/19 06:28:45;;;;;;;;;17.00;13.67;;;;;-147.14;100.00;58812.66;5050724;28;45442;-60
2023/03/19 06:31:10;;;;;;;;;15.33;13.00;;;;;-147.14;100.00;58812.66;5051678;28;46070;-60
2023/03/19 06:33:35;;;;;;;;;19.67;15.67;;;;;-147.14;100.00;58812.66;5053767;28;45437;-60
2023/03/19 06:36:01;;;;;;;;;18.00;16.00;;;;;-147.14;100.00;58812.66;5053834;28;45560;-60
2023/03/19 06:38:26;;;;;;;;;13.00;13.00;;;;;-147.14;100.00;58812.66;5050101;28;63718;-60
2023/03/19 06:40:51;;;;;;;;;13.33;13.00;;;;;-147.14;100.00;58812.66;5044807;28;45511;-58
2023/03/19 06:43:17;;;;;;;;;15.00;13.00;;;;;-147.14;100.00;58812.66;5056225;28;71096;-58
2023/03/19 06:45:42;;;;;;;;;15.33;15.33;;;;;-147.14;100.00;58812.66;5057203;28;64704;-58
2023/03/19 06:48:07;;;;;;;;;12.33;12.00;;;;;-147.14;100.00;58812.66;5053835;28;70387;-58
2023/03/19 06:50:33;;;;;;;;;12.00;12.00;;;;;-147.14;100.00;58812.66;5035005;28;72266;-60
2023/03/19 06:52:58;;;;;;;;;13.00;13.00;;;;;-147.14;100.00;58812.66;5045970;28;69189;-63
2023/03/19 06:55:23;;;;;;;;;15.00;13.67;;;;;-147.14;100.00;58812.66;5030403;28;45854;-63
2023/03/19 06:57:49;;;;;;;;;16.00;13.33;;;;;-147.14;100.00;58812.66;5044345;28;63636;-63
2023/03/19 07:00:15;;;;;;;;;13.67;13.33;;;;;-147.14;100.00;58812.66;5048797;28;46171;-62
2023/03/19 07:02:41;;;;;;;;;13.33;12.00;;;;;-147.14;100.00;58812.66;5047395;28;45419;-70
2023/03/19 07:05:07;;;;;;;;;14.00;11.00;;;;;-147.14;100.00;58812.66;5028615;28;63918;-65
2023/03/19 07:07:32;;;;;;;;;12.67;12.00;;;;;-147.14;100.00;58812.66;5040387;28;45582;-63
2023/03/19 07:09:58;;;;;;;;;12.00;10.67;;;;;-147.14;100.00;58812.66;5039043;28;66506;-62
2023/03/19 07:12:26;;;;;;;;;14.00;13.00;;;;;-147.14;100.00;58812.66;5051363;28;45587;-68
2023/03/19 07:14:52;;;;;;;;;10.67;9.00;;;;;-147.14;100.00;58812.66;5051188;28;46128;-67
2023/03/19 07:17:17;;;;;;;;;12.00;12.00;;;;;-147.14;100.00;58812.66;5040630;28;45533;-66
2023/03/19 07:19:43;;;;;;;;;10.00;10.00;;;;;-147.14;100.00;58812.66;5043333;28;68790;-66
2023/03/19 07:22:08;;;;;;;;;10.00;10.00;;;;;-147.14;100.00;58812.66;5020845;28;65258;-66
2023/03/19 07:24:34;;;;;;;;;13.33;10.67;;;;;-147.14;100.00;58812.66;5045627;28;45542;-66
2023/03/19 07:26:59;;;;;;;;;11.00;11.00;;;;;-147.14;100.00;58812.66;5027307;28;45559;-66
2023/03/19 07:29:25;;;;;;;;;10.00;8.67;;;;;-147.14;100.00;58812.66;5056365;28;72596;-66
2023/03/19 07:31:50;;;;;;;;;12.00;9.00;;;;;-147.14;100.00;58812.66;5053243;28;46070;-66
2023/03/19 07:34:15;;;;;;;;;10.00;9.67;;;;;-147.14;100.00;58812.66;5044086;28;64964;-66
2023/03/19 07:36:41;;;;;;;;;9.33;9.33;;;;;-147.14;100.00;58812.66;5045912;28;67362;-66
2023/03/19 07:39:06;;;;;;;;;11.33;7.67;;;;;-147.14;100.00;58812.66;5053843;28;67062;-66
2023/03/19 07:41:31;;;;;;;;;8.00;8.00;;;;;-147.14;100.00;58812.66;5044072;28;45256;-66
2023/03/19 07:43:57;;;;;;;;;8.67;8.67;;;;;-147.14;100.00;58812.66;5044815;28;66202;-66
2023/03/19 07:46:22;;;;;;;;;8.33;8.33;;;;;-147.14;100.00;58812.66;5040146;28;60307;-67
2023/03/19 07:48:48;;;;;;;;;8.00;8.00;;;;;-147.14;100.00;58812.66;5018356;28;47373;-66
2023/03/19 07:51:13;;;;;;;;;10.00;9.00;;;;;-147.14;100.00;58812.66;5046080;28;62617;-64
2023/03/19 07:53:38;;;;;;;;;13.00;10.67;;;;;-147.14;100.00;58812.66;5048983;28;45637;-64
2023/03/19 07:56:04;;;;;;;;;11.00;9.67;;;;;-147.14;100.00;58812.66;5044015;28;45538;-64
2023/03/19 07:58:30;;;;;;;;;8.67;8.67;;;;;-147.14;100.00;58812.66;5025853;28;45532;-64
2023/03/19 08:00:55;;;;;;;;;7.67;7.67;;;;;-147.14;100.00;58812.66;5040753;28;70063;-64
2023/03/19 08:03:21;;;;;;;;;10.67;8.67;;;;;-147.14;100.00;58812.66;5044771;28;45414;-64
2023/03/19 08:05:49;;;;;;;;;12.00;9.67;;;;;-147.14;100.00;58812.66;5046236;28;45446;-64
2023/03/19 08:08:15;;;;;;;;;8.67;7.67;;;;;-147.14;100.00;58812.66;5013439;28;47577;-64
2023/03/19 08:10:40;;;;;;;;;7.67;7.67;;;;;-147.14;100.00;58812.66;5027387;28;46043;-64
2023/03/19 08:13:05;;;;;;;;;7.67;7.67;;;;;-147.14;100.00;58812.66;5048602;28;65948;-64
2023/03/19 08:15:31;;;;;;;;;10.00;8.00;;;;;-147.14;100.00;58812.66;5032652;28;45587;-65
2023/03/19 08:18:02;;;;;;;;;8.33;6.67;;;;;-147.14;100.00;58812.66;5042427;28;46133;-65
2023/03/19 08:20:27;;;;;;;;;10.67;8.67;;;;;-147.14;100.00;58812.66;5021509;28;45238;-65
2023/03/19 08:22:53;;;;;;;;;8.67;7.33;;;;;-147.14;100.00;58812.66;5035602;28;64719;-65
2023/03/19 08:25:18;;;;;;;;;8.00;7.00;;;;;-147.14;100.00;58812.66;5041747;28;45359;-65
2023/03/19 08:27:43;;;;;;;;;10.00;10.00;;;;;-147.14;100.00;58812.66;5021365;28;68958;-65
2023/03/19 08:30:10;;;;;;;;;7.33;7.00;;;;;-147.14;100.00;58812.66;5039650;28;45509;-65
2023/03/19 08:32:35;;;;;;;;;7.00;6.00;;;;;-147.14;100.00;58812.66;5041025;28;45326;-65
2023/03/19 08:35:01;;;;;;;;;6.67;6.67;;;;;-147.14;100.00;58812.66;5039781;28;45356;-65
2023/03/19 08:37:27;;;;;;;;;12.33;9.67;;;;;-147.14;100.00;58812.66;5040306;28;45680;-65
2023/03/19 08:39:52;;;;;;;;;11.33;10.00;;;;;-147.14;100.00;58812.66;5043720;28;45383;-65
2023/03/19 08:42:18;;;;;;;;;12.33;11.67;;;;;-147.14;100.00;58812.66;5039034;28;45412;-64
2023/03/19 08:44:44;;;;;;;;;13.00;11.33;;;;;-147.14;100.00;58812.66;5046868;28;45553;-64
2023/03/19 08:47:10;;;;;;;;;13.00;11.67;;;;;-147.14;100.00;58812.66;5042370;28;74170;-65
2023/03/19 08:49:35;;;;;;;;;14.00;13.00;;;;;-147.14;100.00;58812.66;5046839;28;45624;-64
2023/03/19 08:52:01;;;;;;;;;10.67;10.00;;;;;-147.14;100.00;58812.66;5041395;28;45418;-66
2023/03/19 08:54:26;;;;;;;;;17.00;14.67;;;;;-147.14;100.00;58812.66;5045635;28;45232;-65
2023/03/19 08:56:51;;;;;;;;;9.00;8.67;;;;;-147.14;100.00;58812.66;5053805;28;68984;-65
2023/03/19 08:59:17;;;;;;;;;7.00;5.67;;;;;-147.14;100.00;58812.66;5045173;28;55930;-65
2023/03/19 09:01:43;;;;;;;;;8.33;8.33;;;;;-147.14;100.00;58812.66;5044459;28;63358;-65
2023/03/19 09:04:08;;;;;;;;;9.00;6.33;;;;;-147.14;100.00;58812.66;5028305;28;45482;-65
2023/03/19 09:06:33;;;;;;;;;10.00;8.67;;;;;-147.14;100.00;58812.66;5042463;28;74024;-65
2023/03/19 09:08:59;;;;;;;;;9.67;6.67;;;;;-147.14;100.00;58812.66;5025815;28;45556;-65
2023/03/19 09:11:24;;;;;;;;;9.00;9.00;;;;;-147.14;100.00;58812.66;5026999;28;45473;-65
2023/03/19 09:13:50;;;;;;;;;5.33;5.33;;;;;-147.14;100.00;58812.66;5039411;28;45384;-65
2023/03/19 09:16:15;;;;;;;;;9.00;6.67;;;;;-147.14;100.00;58812.66;5024340;28;47187;-65
2023/03/19 09:18:41;;;;;;;;;7.67;6.67;;;;;-147.14;100.00;58812.66;5040080;28;45434;-65
2023/03/19 09:21:06;;;;;;;;;10.00;8.67;;;;;-147.14;100.00;58812.66;5042772;28;46220;-65
2023/03/19 09:23:32;;;;;;;;;5.33;5.33;;;;;-147.14;100.00;58812.66;5037787;28;45475;-65
2023/03/19 09:25:57;;;;;;;;;10.67;7.33;;;;;-147.14;100.00;58812.66;5039435;28;70358;-65
2023/03/19 09:28:23;;;;;;;;;4.67;4.67;;;;;-147.14;100.00;58812.66;5049207;28;70240;-65
2023/03/19 09:30:49;;;;;;;;;7.33;7.33;;;;;-147.14;100.00;58812.66;5041130;28;45430;-65
2023/03/19 09:33:16;;;;;;;;;5.67;5.00;;;;;-147.14;100.00;58812.66;5037447;28;45450;-65
2023/03/19 09:35:42;;;;;;;;;9.00;7.33;;;;;-147.14;100.00;58812.66;5037683;28;45515;-65
2023/03/19 09:38:07;;;;;;;;;6.33;6.33;;;;;-147.14;100.00;58812.66;5047994;28;45366;-65
2023/03/19 09:40:46;;;;;;;;;7.67;6.67;;;;;-147.14;100.00;58812.66;5004688;28;45490;-65
2023/03/19 09:43:45;;;;;;;;;5.67;4.67;;;;;-147.14;100.00;58812.66;5020421;28;45396;-65
2023/03/19 09:46:16;;;;;;;;;6.00;6.00;;;;;-147.14;100.00;58812.66;5043243;28;46214;-66
2023/03/19 09:49:03;;;;;;;;;7.00;7.00;;;;;-147.14;100.00;58812.66;5057518;28;45405;-65
2023/03/19 09:51:35;;;;;;;;;4.00;4.00;;;;;-147.14;100.00;58812.66;5048320;28;45239;-64
2023/03/19 09:54:03;;;;;;;;;3.67;3.67;;;;;-147.14;100.00;58812.66;5028157;28;45594;-65
2023/03/19 09:56:30;;;;;;;;;8.00;5.00;;;;;-147.14;100.00;58812.66;5017773;28;47674;-65
2023/03/19 09:58:55;;;;;;;;;6.00;6.00;;;;;-147.14;100.00;58812.66;5029208;28;45464;-65
2023/03/19 10:01:34;;;;;;;;;5.00;5.00;;;;;-147.14;100.00;58812.66;5028579;28;70148;-65
2023/03/19 10:04:21;;;;;;;;;6.67;4.33;;;;;-147.14;100.00;58812.66;5043569;28;45460;-65
2023/03/19 10:06:46;;;;;;;;;8.00;6.00;;;;;-147.14;100.00;58812.66;5051492;28;46127;-64
2023/03/19 10:09:26;;;;;;;;;4.00;2.00;;;;;-147.14;100.00;58812.66;5046716;28;47000;-64
2023/03/19 10:12:03;;;;;;;;;7.00;7.00;;;;;-147.14;100.00;58812.66;5049067;28;45415;-64
2023/03/19 10:14:37;;;;;;;;;8.00;8.00;;;;;-147.14;100.00;58812.66;5047812;28;45677;-64
2023/03/19 10:17:05;;;;;;;;;8.00;6.00;;;;;-147.14;100.00;58812.66;5042299;28;45453;-64
2023/03/19 10:19:39;;;;;;;;;10.33;8.00;;;;;-147.14;100.00;58812.66;5043648;28;45427;-64
2023/03/19 10:22:07;;;;;;;;;9.33;7.67;;;;;-147.14;100.00;58812.66;5048765;28;45329;-64
2023/03/19 10:24:38;;;;;;;;;6.67;6.67;;;;;-147.14;100.00;58812.66;5042491;28;45501;-64
2023/03/19 10:27:14;;;;;;;;;10.33;9.00;;;;;-147.14;100.00;58812.66;5024074;28;46151;-64
2023/03/19 10:29:42;;;;;;;;;12.33;7.67;;;;;-147.14;100.00;58812.66;5038641;28;45719;-65
2023/03/19 10:32:14;;;;;;;;;9.00;9.00;;;;;-147.14;100.00;58812.66;5031809;28;45518;-65
2023/03/19 10:34:45;;;;;;;;;10.00;8.67;;;;;-147.14;100.00;58812.66;5048893;28;45785;-65
2023/03/19 10:37:29;;;;;;;;;9.33;9.33;;;;;-147.14;100.00;58812.66;5041366;28;47223;-65
2023/03/19 10:39:56;;;;;;;;;10.00;9.67;;;;;-147.14;100.00;58812.66;5040481;28;45577;-65
2023/03/19 10:42:55;;;;;;;;;10.67;9.33;;;;;-147.14;100.00;58812.66;5023268;28;45489;-65
2023/03/19 10:45:29;;;;;;;;;9.67;7.33;;;;;-147.14;100.00;58812.66;5019530;28;45441;-65
2023/03/19 10:47:55;;;;;;;;;13.67;12.00;;;;;-147.14;100.00;58812.66;5032733;28;45553;-65
2023/03/19 10:50:52;;;;;;;;;6.33;6.33;;;;;-147.14;100.00;58812.66;5022527;28;45568;-65
2023/03/19 10:53:17;;;;;;;;;6.00;4.33;;;;;-147.14;100.00;58812.66;5040632;28;45423;-65
2023/03/19 10:55:59;;;;;;;;;2.00;2.00;;;;;-147.14;100.00;58812.66;5040332;28;45386;-65
2023/03/19 10:58:27;;;;;;;;;2.33;2.33;;;;;-147.14;100.00;58812.66;5048181;28;45484;-65
2023/03/19 11:00:57;;;;;;;;;3.67;2.67;;;;;-147.14;100.00;58812.66;5042938;28;45375;-65
2023/03/19 11:03:46;;;;;;;;;1.00;1.00;;;;;-147.14;100.00;58812.66;5050114;28;45324;-65
2023/03/19 11:06:19;;;;;;;;;3.00;3.00;;;;;-147.14;100.00;58812.66;5044057;28;45364;-65
2023/03/19 11:09:09;;;;;;;;;3.00;3.00;;;;;-147.14;100.00;58812.66;5048220;28;45915;-65
2023/03/19 11:11:45;;;;;;;;;3.67;3.67;;;;;-147.14;100.00;58812.66;5041663;28;45643;-65
2023/03/19 11:14:14;;;;;;;;;3.33;3.33;;;;;-147.14;100.00;58812.66;5043538;28;45281;-65
2023/03/19 11:17:19;;;;;;;;;3.67;3.67;;;;;-147.14;100.00;58812.66;5050787;28;45541;-65
2023/03/19 11:20:27;;;;;;;;;4.33;3.67;;;;;-147.14;100.00;58812.66;5035770;28;46317;-65
2023/03/19 11:22:54;;;;;;;;;2.00;2.00;;;;;-147.14;100.00;58812.66;5046638;28;45585;-65
2023/03/19 11:25:28;;;;;;;;;4.67;4.00;;;;;-147.14;100.00;58812.66;5030564;28;45544;-64
2023/03/19 11:27:59;;;;;;;;;2.67;2.33;;;;;-147.14;100.00;58812.66;5044569;28;45408;-65
2023/03/19 11:30:30;;;;;;;;;2.00;2.00;;;;;-147.14;100.00;58812.66;5052206;28;46350;-65
2023/03/19 11:33:15;;;;;;;;;2.00;2.00;;;;;-147.14;100.00;58812.66;5043557;28;45367;-65
2023/03/19 11:35:46;;;;;;;;;1.00;1.00;;;;;-147.14;100.00;58812.66;5042158;28;45249;-65
2023/03/19 11:39:04;;;;;;;;;1.67;1.67;;;;;-147.14;100.00;58812.66;5029375;28;45464;-65
2023/03/19 11:41:45;;;;;;;;;1.00;1.00;;;;;-147.14;100.00;58812.66;5019040;28;45550;-69
2023/03/19 11:44:29;;;;;;;;;2.00;2.00;;;;;-147.14;100.00;58812.66;5028246;28;45523;-68
2023/03/19 11:47:06;;;;;;;;;2.33;2.33;;;;;-147.14;100.00;58812.66;5049353;28;45467;-68
2023/03/19 11:49:41;;;;;;;;;2.00;2.00;;;;;-147.14;100.00;58812.66;5033049;28;45435;-68
2023/03/19 11:52:26;;;;;;;;;1.00;1.00;;;;;-147.14;100.00;58812.66;5043081;28;45425;-67
2023/03/19 11:55:00;;;;;;;;;1.00;1.00;;;;;-147.14;100.00;58812.66;5032516;28;45422;-71
2023/03/19 11:57:35;;;;;;;;;3.00;1.33;;;;;-147.14;100.00;58812.66;5044875;28;45807;-69
2023/03/19 12:00:07;;;;;;;;;0.00;0.00;;;;;-147.14;100.00;58812.66;5045253;28;45391;-68
2023/03/19 12:02:44;;;;;;;;;0.00;0.00;;;;;-147.14;100.00;58812.66;5055370;28;45648;-69
2023/03/19 12:05:25;;;;;;;;;1.00;1.00;;;;;-147.14;100.00;58812.66;5030123;28;45524;-63
2023/03/19 12:08:10;;;;;;;;;1.00;1.00;;;;;-147.14;100.00;58812.66;5039623;28;45392;-63
2023/03/19 12:10:54;;;;;;;;;0.33;0.33;;;;;-147.14;100.00;58812.66;5027220;28;45486;-63
2023/03/19 12:13:41;;;;;;;;;3.00;2.00;;;;;-147.14;100.00;58812.66;5022858;28;45414;-61
2023/03/19 12:16:16;;;;;;;;;3.00;2.00;;;;;-147.14;100.00;58812.66;5033861;28;45681;-64
2023/03/19 12:19:10;;;;;;;;;0.00;0.00;;;;;-147.14;100.00;58812.66;5048172;28;45871;-63
2023/03/19 12:21:54;;;;;;;;;1.00;1.00;;;;;-147.14;100.00;58812.66;5042810;28;45321;-64
2023/03/19 12:24:22;;;;;;;;;1.67;1.67;;;;;-147.14;100.00;58812.66;5043991;28;45284;-64
2023/03/19 12:27:03;;;;;;;;;1.67;1.67;;;;;-147.14;100.00;58812.66;5039563;28;45795;-64
2023/03/19 12:29:36;;;;;;;;;2.00;1.00;;;;;-147.14;100.00;58812.66;5044938;28;45568;-64
2023/03/19 12:32:12;;;;;;;;;1.00;1.00;;;;;-147.14;100.00;58812.66;5026867;28;45373;-64
2023/03/19 12:34:46;;;;;;;;;2.00;0.00;;;;;-147.14;100.00;58812.66;5039130;28;46377;-62
2023/03/19 12:37:17;;;;;;;;;2.00;0.00;;;;;-147.14;100.00;58812.66;5022056;28;45316;-62
2023/03/19 12:39:52;;;;;;;;;1.00;1.00;;;;;-147.14;100.00;58812.66;5030439;28;45558;-62
2023/03/19 12:42:18;;;;;;;;;1.00;1.00;;;;;-147.14;100.00;58812.66;5024557;28;45600;-63
2023/03/19 12:44:53;;;;;;;;;1.00;1.00;;;;;-147.14;100.00;58812.66;5031935;28;74217;-63
2023/03/19 12:47:25;;;;;;;;;2.00;1.00;;;;;-147.14;100.00;58812.66;5036181;28;45364;-63
2023/03/19 12:50:16;;;;;;;;;1.67;1.00;;;;;-147.14;100.00;58812.66;5024582;28;45373;-63
2023/03/19 12:52:45;;;;;;;;;1.33;1.33;;;;;-147.14;100.00;58812.66;5043170;28;45484;-63
2023/03/19 12:55:11;;;;;;;;;1.00;1.00;;;;;-147.14;100.00;58812.66;5020468;28;45556;-63
2023/03/19 12:57:38;;;;;;;;;0.00;0.00;;;;;-147.14;100.00;58812.66;5045993;28;45454;-63
2023/03/19 13:00:29;;;;;;;;;1.00;1.00;;;;;-147.14;100.00;58812.66;5040003;28;45359;-63
2023/03/19 13:03:04;;;;;;;;;1.33;1.33;;;;;-147.14;100.00;58812.66;5048439;28;45402;-63
2023/03/19 13:05:38;;;;;;;;;1.00;1.00;;;;;-147.14;100.00;58812.66;5028357;28;46230;-64
2023/03/19 13:08:15;;;;;;;;;2.00;2.00;;;;;-147.14;100.00;58812.66;5038015;28;45508;-63
2023/03/19 13:10:41;;;;;;;;;3.67;2.00;;;;;-147.14;100.00;58812.66;5023909;28;45629;-63
2023/03/19 13:13:32;;;;;;;;;2.33;2.33;;;;;-147.14;100.00;58812.66;5049362;28;47901;-64
2023/03/19 13:16:15;;;;;;;;;1.00;1.00;;;;;-147.14;100.00;58812.66;5031160;28;46046;-68
2023/03/19 13:19:04;;;;;;;;;2.67;2.00;;;;;-147.14;100.00;58812.66;5022593;28;45317;-63
2023/03/19 13:21:32;;;;;;;;;2.67;2.67;;;;;-147.14;100.00;58812.66;5032325;28;45414;-63
2023/03/19 13:24:32;;;;;;;;;2.67;2.67;;;;;-147.14;100.00;58812.66;5004213;28;45330;-63
2023/03/19 13:27:00;;;;;;;;;4.00;4.00;;;;;-147.14;100.00;58812.66;5054631;28;46397;-63
2023/03/19 13:29:30;;;;;;;;;2.67;2.67;;;;;-147.14;100.00;58812.66;5029656;28;45542;-63
2023/03/19 13:32:06;;;;;;;;;1.00;1.00;;;;;-147.14;100.00;58812.66;5023391;28;45291;-63
2023/03/19 13:34:34;;;;;;;;;2.00;2.00;;;;;-147.14;100.00;58812.66;5050966;28;45427;-63
2023/03/19 13:37:12;;;;;;;;;5.33;2.00;;;;;-147.14;100.00;58812.66;5034549;28;47474;-63
2023/03/19 13:39:38;;;;;;;;;3.00;2.00;;;;;-147.14;100.00;58812.66;5036202;28;45523;-63
2023/03/19 13:42:38;;;;;;;;;2.00;2.00;;;;;-147.14;100.00;58812.66;5044706;28;45394;-63
2023/03/19 13:45:36;;;;;;;;;0.00;0.00;;;;;-147.14;100.00;58812.66;5019906;28;45650;-63
2023/03/19 13:48:27;;;;;;;;;0.67;0.67;;;;;-147.14;100.00;58812.66;5029536;28;46233;-64
2023/03/19 13:51:02;;;;;;;;;3.00;3.00;;;;;-147.14;100.00;58812.66;5026655;28;45294;-63
2023/03/19 13:53:31;;;;;;;;;1.00;1.00;;;;;-147.14;100.00;58812.66;5038661;28;45309;-63
2023/03/19 13:56:03;;;;;;;;;1.67;1.67;;;;;-147.14;100.00;58812.66;5057227;28;45347;-64
2023/03/19 14:01:25;;;;;;;;;0.33;0.33;;;;;-147.14;100.00;58812.66;5057165;28;45256;-64
2023/03/19 14:03:57;;;;;;;;;1.33;1.33;;;;;-147.14;100.00;58812.66;5049665;28;45635;-64
2023/03/19 14:06:35;;;;;;;;;0.67;0.67;;;;;-147.14;100.00;58812.66;5051578;28;45446;-64
2023/03/19 14:09:00;;;;;;;;;0.67;0.00;;;;;-147.14;100.00;58812.66;5013750;28;48155;-64
2023/03/19 14:11:32;;;;;;;;;2.33;2.00;;;;;-147.14;100.00;58812.66;5038716;28;45196;-64
2023/03/19 14:14:04;;;;;;;;;1.33;1.00;;;;;-147.14;100.00;58812.66;5029598;28;45410;-64
2023/03/19 14:16:43;;;;;;;;;2.00;2.00;;;;;-147.14;100.00;58812.66;5029721;28;45385;-64
2023/03/19 14:19:16;;;;;;;;;1.00;1.00;;;;;-147.14;100.00;58812.66;5047656;28;46169;-64
2023/03/19 14:21:45;;;;;;;;;1.00;0.33;;;;;-147.14;100.00;58812.66;5011169;28;45356;-64
2023/03/19 14:24:34;;;;;;;;;2.00;1.00;;;;;-147.14;100.00;58812.66;5035006;28;45409;-64
2023/03/19 14:27:17;;;;;;;;;0.67;0.67;;;;;-147.14;100.00;58812.66;5045984;28;45512;-64
2023/03/19 14:29:44;;;;;;;;;1.67;0.67;;;;;-147.14;100.00;58812.66;5032331;28;46479;-64
2023/03/19 14:32:16;;;;;;;;;1.00;1.00;;;;;-147.14;100.00;58812.66;5020476;28;45467;-64
2023/03/19 14:34:42;;;;;;;;;2.67;1.67;;;;;-147.14;100.00;58812.66;5022307;28;45457;-64
2023/03/19 14:37:35;;;;;;;;;3.00;1.00;;;;;-147.14;100.00;58812.66;5022394;28;45392;-64
2023/03/19 14:40:13;;;;;;;;;2.00;1.00;;;;;-147.14;100.00;58812.66;5050428;28;46352;-64
2023/03/19 14:42:46;;;;;;;;;2.00;2.00;;;;;-147.14;100.00;58812.66;5027145;28;45332;-64
2023/03/19 14:48:25;;;;;;;;;1.00;1.00;;;;;-147.14;100.00;58812.66;5041003;28;45251;-64
2023/03/19 14:51:28;;;;;;;;;1.33;1.33;;;;;-147.14;100.00;58812.66;5032950;28;45351;-64
2023/03/19 14:54:35;;;;;;;;;3.00;2.67;;;;;-147.14;100.00;58812.66;5040631;28;45495;-64
2023/03/19 14:57:27;;;;;;;;;3.67;1.67;;;;;-147.14;100.00;58812.66;5048895;28;45556;-64
2023/03/19 14:59:54;;;;;;;;;3.00;1.67;;;;;-147.14;100.00;58812.66;5035933;28;45526;-64
2023/03/19 15:02:37;;;;;;;;;3.00;1.00;;;;;-147.14;100.00;58812.66;5047743;28;45516;-64
2023/03/19 15:05:23;;;;;;;;;4.67;3.00;;;;;-147.14;100.00;58812.66;5048968;28;45379;-64
2023/03/19 15:07:55;;;;;;;;;1.00;0.67;;;;;-147.14;100.00;58812.66;5023451;28;45273;-64
2023/03/19 15:10:22;;;;;;;;;4.00;2.00;;;;;-147.14;100.00;58812.66;5022335;28;45312;-64
2023/03/19 15:12:55;;;;;;;;;2.67;2.67;;;;;-147.14;100.00;58812.66;5027316;28;46313;-64
2023/03/19 15:15:39;;;;;;;;;1.67;1.67;;;;;-147.14;100.00;58812.66;5040642;28;45455;-64
2023/03/19 15:18:10;;;;;;;;;2.00;2.00;;;;;-147.14;100.00;58812.66;5038506;28;45471;-64
2023/03/19 15:20:38;;;;;;;;;1.67;1.67;;;;;-147.14;100.00;58812.66;5025812;28;45331;-64
2023/03/19 15:23:06;;;;;;;;;4.00;2.00;;;;;-147.14;100.00;58812.66;5050930;28;45694;-64
2023/03/19 15:28:18;;;;;;;;;1.67;1.67;;;;;-147.14;100.00;58812.66;5039277;28;45381;-64
2023/03/19 15:30:44;;;;;;;;;3.67;2.33;;;;;-147.14;100.00;58812.66;5050375;28;45406;-65
2023/03/19 15:33:25;;;;;;;;;1.00;1.00;;;;;-147.14;100.00;58812.66;5033528;28;46301;-64
2023/03/19 15:35:52;;;;;;;;;2.67;1.00;;;;;-147.14;100.00;58812.66;5026978;28;45343;-64
2023/03/19 15:38:17;;;;;;;;;1.00;1.00;;;;;-147.14;100.00;58812.66;5045552;28;45543;-64
2023/03/19 15:40:43;;;;;;;;;2.33;0.00;;;;;-147.14;100.00;58812.66;5019503;28;45391;-64
2023/03/19 15:43:11;;;;;;;;;1.33;1.33;;;;;-147.14;100.00;58812.66;5046923;28;45377;-64
2023/03/19 15:45:38;;;;;;;;;3.00;2.00;;;;;-147.14;100.00;58812.66;5035301;28;45743;-64
2023/03/19 15:48:26;;;;;;;;;2.00;0.33;;;;;-147.14;100.00;58812.66;5040072;28;45294;-64
2023/03/19 15:50:56;;;;;;;;;3.67;2.33;;;;;-147.14;100.00;58812.66;5055335;28;45276;-64
2023/03/19 15:53:24;;;;;;;;;10.67;5.00;;;;;-147.14;100.00;58812.66;5029808;28;46125;-64
2023/03/19 15:55:51;;;;;;;;;4.67;3.00;;;;;-147.14;100.00;58812.66;5040833;28;45440;-63
2023/03/19 15:58:23;;;;;;;;;3.00;0.67;;;;;-147.14;100.00;58812.66;5034286;28;45400;-64
2023/03/19 16:00:51;;;;;;;;;0.67;0.67;;;;;-147.14;100.00;58812.66;5021830;28;45325;-64
2023/03/19 16:03:20;;;;;;;;;3.33;2.67;;;;;-147.14;100.00;58812.66;5034523;28;45598;-64
2023/03/19 16:05:50;;;;;;;;;5.67;3.00;;;;;-147.14;100.00;58812.66;5024642;28;45455;-64
2023/03/19 16:08:21;;;;;;;;;0.67;0.67;;;;;-147.14;100.00;58812.66;5030865;28;45708;-64
2023/03/19 16:10:46;;;;;;;;;1.67;1.00;;;;;-147.14;100.00;58812.66;5030636;28;45411;-63
2023/03/19 16:13:27;;;;;;;;;1.00;1.00;;;;;-147.14;100.00;58812.66;5024192;28;46347;-64
2023/03/19 16:15:55;;;;;;;;;1.67;1.67;;;;;-147.14;100.00;58812.66;5045835;28;45288;-64
2023/03/19 16:18:22;;;;;;;;;3.00;0.33;;;;;-147.14;100.00;58812.66;5034964;28;45471;-63
2023/03/19 16:21:08;;;;;;;;;0.33;0.33;;;;;-147.14;100.00;58812.66;5051721;28;45154;-64
2023/03/19 16:23:36;;;;;;;;;0.00;0.00;;;;;-147.14;100.00;58812.66;5033691;28;47272;-63
2023/03/19 16:26:13;;;;;;;;;2.67;1.00;;;;;-147.14;100.00;58812.66;5044269;28;45535;-63
2023/03/19 16:28:46;;;;;;;;;1.00;1.00;;;;;-147.14;100.00;58812.66;5024725;28;45412;-64
2023/03/19 16:31:20;;;;;;;;;2.00;0.67;;;;;-147.14;100.00;58812.66;5024054;28;45298;-63
2023/03/19 16:33:46;;;;;;;;;1.00;0.33;;;;;-147.14;100.00;58812.66;5017236;28;47116;-63
2023/03/19 16:36:12;;;;;;;;;1.00;0.00;;;;;-147.14;100.00;58812.66;5039165;28;45327;-63
2023/03/19 16:38:52;;;;;;;;;1.00;0.00;;;;;-147.14;100.00;58812.66;5016146;28;45437;-63
2023/03/19 16:41:23;;;;;;;;;0.00;0.00;;;;;-147.14;100.00;58812.66;5027938;28;45458;-63
2023/03/19 16:43:51;;;;;;;;;2.00;0.00;;;;;-147.14;100.00;58812.66;5031321;28;45491;-63
2023/03/19 16:46:16;;;;;;;;;1.00;1.00;;;;;-147.14;100.00;58812.66;5044977;28;45426;-63
2023/03/19 16:48:42;;;;;;;;;1.00;1.00;;;;;-147.14;100.00;58812.66;5026778;28;45381;-64
2023/03/19 16:51:13;;;;;;;;;1.33;0.00;;;;;-147.14;100.00;58812.66;5045649;28;45279;-63
2023/03/19 16:53:39;;;;;;;;;1.00;0.33;;;;;-147.14;100.00;58812.66;5025887;28;45451;-63
2023/03/19 16:56:05;;;;;;;;;0.00;0.00;;;;;-147.14;100.00;58812.66;5046862;28;51304;-63
2023/03/19 16:58:34;;;;;;;;;2.00;1.00;;;;;-147.14;100.00;58812.66;5027711;28;45474;-63
2023/03/19 17:01:00;;;;;;;;;1.33;0.00;;;;;-147.14;100.00;58812.66;5014664;28;45823;-63
2023/03/19 17:03:28;;;;;;;;;0.00;0.00;;;;;-147.14;100.00;58812.66;5000106;28;47981;-63
2023/03/19 17:05:54;;;;;;;;;0.00;0.00;;;;;-147.14;100.00;58812.66;5012868;28;45659;-63
2023/03/19 17:08:21;;;;;;;;;1.00;0.00;;;;;-147.14;100.00;58812.66;5005406;28;45423;-63
2023/03/19 17:10:49;;;;;;;;;3.00;0.33;;;;;-147.14;100.00;58812.66;5001861;28;45386;-63
2023/03/19 17:13:19;;;;;;;;;1.67;1.67;;;;;-147.14;100.00;58812.66;4999746;28;46071;-63
2023/03/19 17:15:45;;;;;;;;;4.00;1.00;;;;;-147.14;100.00;58812.66;4980798;28;45417;-63
2023/03/19 17:18:22;;;;;;;;;0.00;0.00;;;;;-147.14;100.00;58812.66;5005909;28;45322;-63
2023/03/19 17:21:02;;;;;;;;;1.33;0.67;;;;;-147.14;100.00;58812.66;4999344;28;45379;-63
2023/03/19 17:23:29;;;;;;;;;1.00;1.00;;;;;-147.14;100.00;58812.66;5001420;28;46274;-63
2023/03/19 17:25:55;;;;;;;;;0.00;0.00;;;;;-147.14;100.00;58812.66;4975019;28;45629;-63
2023/03/19 17:28:20;;;;;;;;;3.67;1.00;;;;;-147.14;100.00;58812.66;5004957;28;45289;-63
2023/03/19 17:30:46;;;;;;;;;1.00;1.00;;;;;-147.14;100.00;58812.66;5003893;28;45284;-63
2023/03/19 17:33:23;;;;;;;;;0.67;0.67;;;;;-147.14;100.00;58812.66;5007192;28;45893;-63
2023/03/19 17:35:50;;;;;;;;;1.33;1.00;;;;;-147.14;100.00;58812.66;5009232;28;45295;-63
2023/03/19 17:38:16;;;;;;;;;0.00;0.00;;;;;-147.14;100.00;58812.66;4991523;28;45393;-63